TimeMST,TemperatureF,Dew PointF,Humidity,Sea Level PressureIn,VisibilityMPH,Wind Direction,Wind SpeedMPH,Gust SpeedMPH,PrecipitationIn,Events,Conditions,WindDirDegrees,DateUTC
12:52 AM,42.1,18.0,38,30.18,10.0,NNE,4.6,-,N/A,,Mostly Cloudy,30,2012-11-21 07:52:00
1:52 AM,39.0,17.1,41,30.18,10.0,NNE,9.2,-,N/A,,Scattered Clouds,20,2012-11-21 08:52:00
2:52 AM,39.9,12.9,33,30.17,10.0,North,10.4,-,N/A,,Mostly Cloudy,360,2012-11-21 09:52:00
3:52 AM,37.0,12.0,36,30.18,10.0,North,8.1,-,N/A,,Scattered Clouds,360,2012-11-21 10:52:00
4:52 AM,36.0,12.0,37,30.19,10.0,North,5.8,-,N/A,,Mostly Cloudy,350,2012-11-21 11:52:00
5:52 AM,35.1,12.0,39,30.21,10.0,North,5.8,-,N/A,,Mostly Cloudy,350,2012-11-21 12:52:00
6:52 AM,36.0,12.0,37,30.23,10.0,North,9.2,-,N/A,,Mostly Cloudy,350,2012-11-21 13:52:00
7:52 AM,36.0,10.9,36,30.25,10.0,North,4.6,-,N/A,,Mostly Cloudy,10,2012-11-21 14:52:00
8:52 AM,37.4,12.2,36,30.28,10.0,North,5.8,-,N/A,,Mostly Cloudy,350,2012-11-21 15:52:00
9:52 AM,43.0,14.0,31,30.25,10.0,North,4.6,-,N/A,,Mostly Cloudy,10,2012-11-21 16:52:00
10:52 AM,48.0,15.1,27,30.21,10.0,Calm,Calm,-,N/A,,Mostly Cloudy,0,2012-11-21 17:52:00
11:52 AM,55.0,16.0,22,30.14,10.0,Calm,Calm,-,N/A,,Mostly Cloudy,0,2012-11-21 18:52:00
12:52 PM,57.0,18.0,22,30.12,10.0,Calm,Calm,-,N/A,,Mostly Cloudy,0,2012-11-21 19:52:00
1:52 PM,57.0,19.0,23,30.10,10.0,South,3.5,-,N/A,,Mostly Cloudy,190,2012-11-21 20:52:00
2:52 PM,57.9,24.1,27,30.07,10.0,SSE,11.5,-,N/A,,Mostly Cloudy,160,2012-11-21 21:52:00
3:52 PM,57.9,26.1,30,30.07,10.0,South,6.9,-,N/A,,Mostly Cloudy,180,2012-11-21 22:52:00
4:52 PM,55.0,23.0,29,30.08,10.0,Calm,Calm,-,N/A,,Mostly Cloudy,0,2012-11-21 23:52:00
5:52 PM,53.1,24.1,32,30.11,10.0,Calm,Calm,-,N/A,,Mostly Cloudy,0,2012-11-22 00:52:00
6:52 PM,52.0,24.1,34,30.11,10.0,Calm,Calm,-,N/A,,Mostly Cloudy,0,2012-11-22 01:52:00
7:52 PM,48.0,24.1,39,30.13,10.0,Calm,Calm,-,N/A,,Mostly Cloudy,0,2012-11-22 02:52:00
8:52 PM,48.0,23.0,37,30.12,10.0,Calm,Calm,-,N/A,,Scattered Clouds,0,2012-11-22 03:52:00
9:52 PM,46.9,25.0,42,30.11,10.0,Calm,Calm,-,N/A,,Partly Cloudy,0,2012-11-22 04:52:00
10:52 PM,42.1,26.1,53,30.10,10.0,SE,4.6,-,N/A,,Partly Cloudy,130,2012-11-22 05:52:00
11:52 PM,42.1,23.0,47,30.08,10.0,NNW,4.6,-,N/A,,Scattered Clouds,340,2012-11-22 06:52:00